Time;durP1;ratioP1;P1;durP2;ratioP2;P2;SDS_P1;SDS_P2;PMS_P1;PMS_P2;Temp;Humidity;BMP_temperature;BMP_pressure;BME280_temperature;BME280_humidity;BME280_pressure;Samples;Min_cycle;Max_cycle;Signal;HPM_P1;HPM_P2
2024/02/12 00:02:19;;;;;;;0.90;0.60;;;;;;;7.23;100.00;96527.28;5094744;28;20388;-81
2024/02/12 00:04:46;;;;;;;0.80;0.80;;;;;;;7.32;100.00;96525.69;5094745;28;20208;-79
2024/02/12 00:07:13;;;;;;;1.43;1.00;;;;;;;7.28;100.00;96525.94;5093993;28;20222;-79
2024/02/12 00:09:39;;;;;;;1.03;0.93;;;;;;;7.24;100.00;96531.56;5093999;28;20212;-81
2024/02/12 00:12:08;;;;;;;0.87;0.87;;;;;;;7.25;100.00;96530.59;5094002;28;20244;-79
2024/02/12 00:14:36;;;;;;;1.63;0.80;;;;;;;7.23;100.00;96537.78;5093874;28;20211;-78
2024/02/12 00:17:05;;;;;;;1.10;0.93;;;;;;;7.21;100.00;96530.97;5094536;28;20225;-79
2024/02/12 00:19:34;;;;;;;0.80;0.70;;;;;;;7.21;100.00;96531.78;5093894;28;20204;-80
2024/02/12 00:22:01;;;;;;;1.07;0.97;;;;;;;7.18;100.00;96534.69;5094028;28;20776;-79
2024/02/12 00:24:28;;;;;;;1.10;1.00;;;;;;;7.21;100.00;96537.06;5094033;28;20688;-81
2024/02/12 00:26:55;;;;;;;1.50;0.77;;;;;;;7.22;100.00;96530.88;5094119;28;20227;-79
2024/02/12 00:29:22;;;;;;;1.70;1.00;;;;;;;7.22;100.00;96535.28;5093682;28;20203;-80
2024/02/12 00:31:50;;;;;;;1.60;0.80;;;;;;;7.29;100.00;96538.09;5094023;28;20246;-79
2024/02/12 00:34:18;;;;;;;1.37;0.70;;;;;;;7.25;100.00;96538.47;5094460;28;20214;-79
2024/02/12 00:36:45;;;;;;;1.20;1.00;;;;;;;7.28;100.00;96543.50;5093726;28;20225;-79
2024/02/12 00:39:12;;;;;;;1.30;0.87;;;;;;;7.33;100.00;96541.31;5093604;28;20256;-79
2024/02/12 00:41:40;;;;;;;1.60;1.00;;;;;;;7.30;100.00;96539.75;5094460;28;20226;-79
2024/02/12 00:44:07;;;;;;;0.90;0.80;;;;;;;7.28;100.00;96546.94;5094194;28;20214;-79
2024/02/12 00:46:34;;;;;;;0.87;0.77;;;;;;;7.33;100.00;96549.19;5094672;28;20252;-79
2024/02/12 00:49:01;;;;;;;1.77;0.70;;;;;;;7.32;100.00;96542.28;5094676;28;20203;-80
2024/02/12 00:51:28;;;;;;;0.70;0.70;;;;;;;7.27;100.00;96539.19;5094095;28;20237;-79
2024/02/12 00:53:55;;;;;;;0.90;0.83;;;;;;;7.27;100.00;96541.81;5094498;28;20212;-79
2024/02/12 00:56:22;;;;;;;2.77;0.80;;;;;;;7.22;100.00;96536.13;5094366;28;20693;-80
2024/02/12 00:58:49;;;;;;;0.93;0.83;;;;;;;7.20;100.00;96548.53;5094254;28;20207;-80
2024/02/12 01:01:16;;;;;;;1.27;0.80;;;;;;;7.06;100.00;96546.19;5094264;28;20416;-79
2024/02/12 01:03:45;;;;;;;1.50;0.93;;;;;;;6.97;100.00;96540.84;5094202;28;20209;-79
2024/02/12 01:06:11;;;;;;;1.27;0.80;;;;;;;6.94;100.00;96552.41;5094143;28;20217;-79
2024/02/12 01:08:39;;;;;;;2.17;0.90;;;;;;;6.85;100.00;96557.56;5095824;28;20220;-79
2024/02/12 01:11:06;;;;;;;0.60;0.60;;;;;;;6.74;100.00;96555.78;5098512;28;20218;-80
2024/02/12 01:13:33;;;;;;;0.63;0.60;;;;;;;6.60;100.00;96556.03;5098279;28;20210;-79
2024/02/12 01:15:59;;;;;;;1.03;0.83;;;;;;;6.52;100.00;96560.19;5098896;28;20633;-79
2024/02/12 01:18:26;;;;;;;1.00;0.90;;;;;;;6.49;100.00;96556.03;5098120;28;20203;-79
2024/02/12 01:20:55;;;;;;;3.77;0.90;;;;;;;6.49;100.00;96565.69;5098444;28;20213;-79
2024/02/12 01:23:22;;;;;;;1.63;0.80;;;;;;;6.50;100.00;96562.97;5098509;28;20240;-80
2024/02/12 01:25:51;;;;;;;0.90;0.70;;;;;;;6.59;100.00;96567.47;5098664;28;20203;-80
2024/02/12 01:28:18;;;;;;;1.23;0.80;;;;;;;6.69;100.00;96573.69;5098067;28;20265;-80
2024/02/12 01:30:45;;;;;;;1.90;0.90;;;;;;;6.77;100.00;96571.28;5097521;28;20206;-79
2024/02/12 01:33:11;;;;;;;0.93;0.70;;;;;;;6.85;100.00;96562.81;5098227;28;20233;-79
2024/02/12 01:35:38;;;;;;;0.57;0.53;;;;;;;6.87;100.00;96561.75;5098329;28;20206;-80
2024/02/12 01:38:08;;;;;;;0.70;0.70;;;;;;;6.91;100.00;96557.91;5098048;28;20669;-79
2024/02/12 01:40:35;;;;;;;0.63;0.57;;;;;;;6.93;100.00;96561.25;5097620;28;20257;-80
2024/02/12 01:43:04;;;;;;;1.17;0.73;;;;;;;6.92;100.00;96564.84;5097016;28;20233;-80
2024/02/12 01:45:31;;;;;;;1.00;0.67;;;;;;;6.94;100.00;96562.91;5097816;28;20708;-80
2024/02/12 01:47:58;;;;;;;1.80;0.70;;;;;;;6.91;100.00;96560.53;5097144;28;20234;-79
2024/02/12 01:50:26;;;;;;;1.53;0.70;;;;;;;6.95;100.00;96572.47;5096909;28;20219;-79
2024/02/12 01:52:53;;;;;;;0.70;0.70;;;;;;;6.99;100.00;96566.00;5096897;28;20319;-79
2024/02/12 01:55:23;;;;;;;3.00;0.80;;;;;;;6.99;100.00;96567.78;5096109;28;20284;-79
2024/02/12 01:57:51;;;;;;;1.70;0.67;;;;;;;7.02;100.00;96562.31;5096136;28;20237;-79
2024/02/12 02:00:21;;;;;;;1.00;0.70;;;;;;;7.02;100.00;96571.00;5096679;28;20261;-79
2024/02/12 02:02:48;;;;;;;1.03;0.67;;;;;;;7.08;100.00;96561.81;5096718;28;20231;-79
2024/02/12 02:05:15;;;;;;;2.40;1.07;;;;;;;7.05;100.00;96564.69;5096583;28;20579;-79
2024/02/12 02:07:44;;;;;;;1.23;0.67;;;;;;;7.05;100.00;96567.31;5096382;28;20231;-79
2024/02/12 02:10:14;;;;;;;0.77;0.77;;;;;;;7.05;100.00;96564.69;5096316;28;20271;-79
2024/02/12 02:12:46;;;;;;;0.60;0.60;;;;;;;7.01;100.00;96569.34;5096086;28;20238;-79
2024/02/12 02:15:12;;;;;;;1.43;0.90;;;;;;;7.03;100.00;96572.66;5096010;28;20208;-79
2024/02/12 02:17:40;;;;;;;1.47;0.80;;;;;;;7.03;100.00;96570.03;5095877;28;20679;-79
2024/02/12 02:20:11;;;;;;;1.23;0.73;;;;;;;7.03;100.00;96571.84;5095364;28;20225;-79
2024/02/12 02:22:38;;;;;;;0.67;0.67;;;;;;;7.06;100.00;96577.69;5095670;28;20234;-79
2024/02/12 02:25:10;;;;;;;1.53;0.67;;;;;;;7.09;100.00;96576.63;5096093;28;20558;-79
2024/02/12 02:27:36;;;;;;;0.97;0.70;;;;;;;7.09;100.00;96582.69;5095887;28;20230;-79
2024/02/12 02:30:07;;;;;;;0.63;0.50;;;;;;;7.08;100.00;96586.28;5096226;28;20222;-79
2024/02/12 02:32:34;;;;;;;1.00;0.80;;;;;;;7.17;100.00;96579.47;5095641;28;20223;-80
2024/02/12 02:35:01;;;;;;;1.40;0.80;;;;;;;7.21;100.00;96581.72;5095763;28;20203;-79
2024/02/12 02:37:27;;;;;;;1.60;0.70;;;;;;;7.18;100.00;96584.59;5095327;28;20207;-79
2024/02/12 02:39:55;;;;;;;0.80;0.57;;;;;;;7.18;100.00;96581.97;5095205;28;20216;-79
2024/02/12 02:42:25;;;;;;;1.17;0.67;;;;;;;7.19;100.00;96578.38;5095066;28;20231;-79
2024/02/12 02:44:52;;;;;;;0.60;0.60;;;;;;;7.22;100.00;96588.66;5095677;28;20207;-79
2024/02/12 02:47:19;;;;;;;0.60;0.60;;;;;;;7.21;100.00;96589.59;5095106;28;20230;-80
2024/02/12 02:49:46;;;;;;;1.83;0.70;;;;;;;7.20;100.00;96585.31;5096023;28;20216;-79
2024/02/12 02:52:12;;;;;;;1.47;0.50;;;;;;;7.18;100.00;96581.97;5095344;28;20513;-79
2024/02/12 02:54:39;;;;;;;0.87;0.60;;;;;;;7.21;100.00;96586.16;5095304;28;20225;-79
2024/02/12 02:57:07;;;;;;;2.60;0.70;;;;;;;7.18;100.00;96584.59;5095283;28;20218;-78
2024/02/12 02:59:35;;;;;;;0.80;0.70;;;;;;;7.21;100.00;96592.22;5095459;28;20224;-79
2024/02/12 03:02:02;;;;;;;0.93;0.50;;;;;;;7.22;100.00;96593.91;5095232;28;20231;-79
2024/02/12 03:04:28;;;;;;;0.93;0.60;;;;;;;7.23;100.00;96595.59;5094225;28;20211;-79
2024/02/12 03:06:55;;;;;;;0.93;0.70;;;;;;;7.25;100.00;96593.66;5095268;28;20577;-79
2024/02/12 03:09:22;;;;;;;1.67;0.50;;;;;;;7.26;100.00;96600.56;5094950;28;20233;-80
2024/02/12 03:11:51;;;;;;;0.77;0.70;;;;;;;7.22;100.00;96599.16;5095151;28;20234;-78
2024/02/12 03:14:18;;;;;;;1.23;0.70;;;;;;;7.20;100.00;96605.50;5094758;28;20209;-79
2024/02/12 03:16:46;;;;;;;0.50;0.50;;;;;;;7.26;100.00;96610.28;5094858;28;20735;-79
2024/02/12 03:19:13;;;;;;;0.70;0.60;;;;;;;7.25;100.00;96598.91;5094609;28;20229;-81
2024/02/12 03:21:39;;;;;;;0.80;0.50;;;;;;;7.17;100.00;96606.59;5094652;28;20719;-79
2024/02/12 03:24:06;;;;;;;0.60;0.50;;;;;;;7.13;100.00;96609.56;5094998;28;20241;-80
2024/02/12 03:26:33;;;;;;;0.40;0.40;;;;;;;7.07;100.00;96613.50;5095085;28;20215;-79
2024/02/12 03:29:00;;;;;;;0.50;0.40;;;;;;;7.05;100.00;96615.44;5094413;28;20233;-79
2024/02/12 03:31:26;;;;;;;0.70;0.60;;;;;;;7.05;100.00;96615.44;5095092;28;20345;-78
2024/02/12 03:33:54;;;;;;;0.50;0.50;;;;;;;7.04;100.00;96626.91;5094753;28;20206;-79
2024/02/12 03:36:20;;;;;;;0.50;0.50;;;;;;;7.07;100.00;96621.38;5094191;28;20207;-80
2024/02/12 03:38:48;;;;;;;0.40;0.40;;;;;;;7.11;100.00;96617.56;5094079;28;20210;-79
2024/02/12 03:41:20;;;;;;;0.40;0.40;;;;;;;7.20;100.00;96616.84;5094758;28;20215;-79
2024/02/12 03:43:47;;;;;;;0.40;0.40;;;;;;;7.22;100.00;96626.25;5094852;28;20267;-79
2024/02/12 03:46:19;;;;;;;0.50;0.50;;;;;;;7.23;100.00;96630.56;5094141;28;20207;-79
2024/02/12 03:59:54;;;;;;;0.83;0.50;;;;;;;7.24;100.00;96644.53;5094273;28;20202;-79
2024/02/12 04:02:21;;;;;;;1.13;0.40;;;;;;;7.24;100.00;96650.63;5094229;28;20243;-79
2024/02/12 04:04:49;;;;;;;0.70;0.43;;;;;;;7.28;100.00;96643.34;5094536;28;20211;-79
2024/02/12 04:07:17;;;;;;;0.63;0.50;;;;;;;7.24;100.00;96647.16;5094286;28;20206;-79
2024/02/12 04:09:43;;;;;;;0.63;0.60;;;;;;;7.15;100.00;96653.13;5094250;28;20341;-79
2024/02/12 04:12:12;;;;;;;1.23;0.70;;;;;;;7.07;100.00;96658.16;5094262;28;20599;-79
2024/02/12 04:14:40;;;;;;;0.50;0.50;;;;;;;7.02;100.00;96660.31;5094017;28;20210;-79
2024/02/12 04:17:07;;;;;;;0.67;0.50;;;;;;;6.92;100.00;96664.63;5094314;28;20220;-79
2024/02/12 04:19:33;;;;;;;2.30;0.50;;;;;;;6.88;100.00;96668.44;5094547;28;20209;-79
2024/02/12 04:22:01;;;;;;;1.47;0.60;;;;;;;6.81;100.00;96667.25;5094040;28;20226;-79
2024/02/12 04:24:29;;;;;;;0.77;0.63;;;;;;;6.77;100.00;96681.56;5094439;28;20221;-79
2024/02/12 04:26:57;;;;;;;0.60;0.60;;;;;;;6.81;100.00;96677.75;5094099;28;20221;-79
2024/02/12 04:29:26;;;;;;;1.07;0.60;;;;;;;6.88;100.00;96678.09;5094445;28;20268;-79
2024/02/12 04:31:53;;;;;;;1.00;0.63;;;;;;;6.87;100.00;96682.53;5094101;28;20228;-79
2024/02/12 04:34:19;;;;;;;1.13;0.50;;;;;;;6.91;100.00;96689.19;5094260;28;20736;-79
2024/02/12 04:36:46;;;;;;;0.40;0.40;;;;;;;6.87;100.00;96694.81;5093962;28;20224;-79
2024/02/12 04:39:15;;;;;;;0.57;0.50;;;;;;;6.87;100.00;96695.66;5093816;28;20215;-79
2024/02/12 04:41:45;;;;;;;0.50;0.50;;;;;;;6.87;100.00;96698.28;5093697;28;20227;-79
2024/02/12 04:44:12;;;;;;;0.50;0.50;;;;;;;6.84;100.00;96709.00;5096953;28;20298;-78
2024/02/12 04:46:39;;;;;;;0.93;0.70;;;;;;;6.83;100.00;96707.34;5097745;28;20214;-79
2024/02/12 04:49:06;;;;;;;0.60;0.40;;;;;;;6.88;100.00;96715.72;5098146;28;20226;-79
2024/02/12 04:51:33;;;;;;;0.83;0.80;;;;;;;6.91;100.00;96715.44;5097970;28;20226;-79
2024/02/12 04:54:00;;;;;;;0.80;0.60;;;;;;;6.96;100.00;96712.50;5098247;28;20203;-79
2024/02/12 04:56:27;;;;;;;0.70;0.70;;;;;;;7.00;100.00;96714.75;5098448;28;20211;-79
2024/02/12 04:58:57;;;;;;;0.60;0.60;;;;;;;7.03;100.00;96718.94;5097742;28;20214;-79
2024/02/12 05:01:26;;;;;;;1.40;0.80;;;;;;;7.04;100.00;96710.94;5097945;28;20233;-79
2024/02/12 05:03:53;;;;;;;0.53;0.53;;;;;;;7.01;100.00;96716.44;5097739;28;20213;-79
2024/02/12 05:06:20;;;;;;;0.87;0.73;;;;;;;6.92;100.00;96722.41;5098006;28;20384;-79
2024/02/12 05:08:47;;;;;;;1.10;0.70;;;;;;;6.84;100.00;96719.50;5097987;28;20609;-79
2024/02/12 05:11:14;;;;;;;0.97;0.80;;;;;;;6.76;100.00;96721.91;5097364;28;20200;-80
2024/02/12 05:13:43;;;;;;;0.70;0.60;;;;;;;6.77;100.00;96728.81;5098783;28;20214;-79
2024/02/12 05:16:13;;;;;;;0.80;0.60;;;;;;;6.68;100.00;96732.16;5101094;28;20215;-79
2024/02/12 05:24:10;;;;;;;0.90;0.77;;;;;;;6.61;100.00;96738.81;5099313;28;20218;-79
2024/02/12 05:26:38;;;;;;;1.00;0.80;;;;;;;6.62;100.00;96739.63;5097557;28;20207;-79
2024/02/12 05:29:05;;;;;;;1.23;1.00;;;;;;;6.66;100.00;96739.28;5099842;28;20316;-79
2024/02/12 05:31:33;;;;;;;0.90;0.80;;;;;;;6.73;100.00;96743.13;5099953;28;20359;-79
2024/02/12 05:33:59;;;;;;;1.10;0.73;;;;;;;6.72;100.00;96749.31;5096949;28;20215;-79
2024/02/12 05:36:26;;;;;;;1.97;0.90;;;;;;;6.80;100.00;96754.84;5096536;28;20211;-79
2024/02/12 05:38:52;;;;;;;1.10;0.90;;;;;;;6.80;100.00;96754.84;5096859;28;20252;-79
2024/02/12 05:41:19;;;;;;;1.23;1.00;;;;;;;6.90;100.00;96753.19;5097266;28;20226;-79
2024/02/12 05:43:47;;;;;;;1.27;1.17;;;;;;;6.84;100.00;96758.91;5097092;28;20213;-79
2024/02/12 05:46:13;;;;;;;1.83;1.30;;;;;;;6.87;100.00;96756.06;5098260;28;20367;-79
2024/02/12 05:48:41;;;;;;;2.03;1.03;;;;;;;6.92;100.00;96763.56;5097714;28;20300;-80
2024/02/12 05:51:10;;;;;;;4.63;1.37;;;;;;;6.96;100.00;96762.41;5097525;28;20218;-80
2024/02/12 05:53:36;;;;;;;2.27;1.43;;;;;;;6.92;100.00;96761.78;5097336;28;20202;-80
2024/02/12 05:56:03;;;;;;;1.80;1.17;;;;;;;6.96;100.00;96759.78;5095707;28;20211;-79
2024/02/12 05:58:29;;;;;;;2.10;1.40;;;;;;;7.01;100.00;96768.97;5097360;28;20206;-80
2024/02/12 06:00:57;;;;;;;4.03;1.70;;;;;;;7.04;100.00;96768.75;5097642;28;20678;-79
2024/02/12 06:03:23;;;;;;;2.00;1.53;;;;;;;7.10;100.00;96763.00;5097220;28;20207;-80
2024/02/12 06:05:51;;;;;;;4.13;2.10;;;;;;;7.11;100.00;96763.84;5097381;28;20582;-79
2024/02/12 06:08:18;;;;;;;2.97;1.93;;;;;;;7.13;100.00;96775.91;5097318;28;20230;-79
2024/02/12 06:10:44;;;;;;;3.63;2.10;;;;;;;7.14;100.00;96772.31;5096632;28;20208;-80
2024/02/12 06:13:11;;;;;;;3.20;2.50;;;;;;;7.15;100.00;96776.59;5096826;28;20238;-79
2024/02/12 06:15:37;;;;;;;4.23;2.70;;;;;;;7.18;100.00;96776.38;5096863;28;20291;-80
2024/02/12 06:18:05;;;;;;;5.37;2.23;;;;;;;7.21;100.00;96777.94;5096055;28;20207;-79
2024/02/12 06:20:33;;;;;;;4.27;3.00;;;;;;;7.21;100.00;96788.44;5096937;28;20252;-79
2024/02/12 06:23:01;;;;;;;5.60;3.10;;;;;;;7.22;100.00;96791.78;5095936;28;20330;-79
2024/02/12 06:25:27;;;;;;;6.03;2.93;;;;;;;7.23;100.00;96790.00;5096827;28;20229;-79
2024/02/12 06:27:54;;;;;;;5.27;2.90;;;;;;;7.26;100.00;96794.19;5096451;28;20645;-79
2024/02/12 06:30:20;;;;;;;5.07;3.03;;;;;;;7.26;100.00;96795.00;5096269;28;20213;-80
2024/02/12 06:32:47;;;;;;;4.90;2.90;;;;;;;7.27;100.00;96804.56;5095989;28;20721;-80
2024/02/12 06:35:14;;;;;;;4.63;3.07;;;;;;;7.28;100.00;96809.72;5096037;28;20207;-80
2024/02/12 06:37:40;;;;;;;7.63;3.23;;;;;;;7.27;100.00;96817.69;5095609;28;20417;-79
2024/02/12 06:40:10;;;;;;;7.80;3.50;;;;;;;7.22;100.00;96820.69;5095477;28;20594;-80
2024/02/12 06:42:36;;;;;;;4.60;3.40;;;;;;;7.17;100.00;96816.75;5095814;28;20227;-80
2024/02/12 06:45:03;;;;;;;4.97;3.60;;;;;;;7.14;100.00;96814.34;5095497;28;20210;-79
2024/02/12 06:47:30;;;;;;;4.77;2.97;;;;;;;7.07;100.00;96810.50;5095804;28;20252;-80
2024/02/12 06:49:56;;;;;;;5.20;3.37;;;;;;;7.03;100.00;96827.44;5095348;28;20249;-80
2024/02/12 06:52:23;;;;;;;6.37;4.07;;;;;;;7.00;100.00;96822.44;5095115;28;20622;-80
2024/02/12 06:54:50;;;;;;;4.70;3.60;;;;;;;6.98;100.00;96827.00;5095552;28;20221;-80
2024/02/12 06:57:18;;;;;;;4.17;2.63;;;;;;;6.98;100.00;96829.63;5095198;28;20219;-80
2024/02/12 06:59:45;;;;;;;5.97;3.50;;;;;;;6.96;100.00;96839.38;5096028;28;20210;-80
2024/02/12 07:02:12;;;;;;;5.33;3.50;;;;;;;6.96;100.00;96842.00;5095773;28;20671;-80
2024/02/12 07:04:39;;;;;;;5.87;3.50;;;;;;;7.01;100.00;96842.50;5095717;28;20211;-80
2024/02/12 07:07:06;;;;;;;6.27;3.40;;;;;;;6.97;100.00;96841.03;5094701;28;20224;-80
2024/02/12 07:09:34;;;;;;;4.93;3.17;;;;;;;6.95;100.00;96842.97;5095053;28;20609;-80
2024/02/12 07:12:01;;;;;;;5.27;3.13;;;;;;;6.93;100.00;96844.88;5095349;28;20227;-80
2024/02/12 07:14:30;;;;;;;5.93;3.50;;;;;;;6.99;100.00;96856.69;5095198;28;20203;-80
2024/02/12 07:16:57;;;;;;;4.20;3.33;;;;;;;7.00;100.00;96855.75;5094794;28;20241;-80
2024/02/12 07:19:23;;;;;;;6.23;3.43;;;;;;;7.01;100.00;96863.50;5095105;28;20206;-79
2024/02/12 07:21:50;;;;;;;4.17;3.07;;;;;;;7.02;100.00;96859.13;5095250;28;20238;-80
2024/02/12 07:24:16;;;;;;;6.67;3.23;;;;;;;7.05;100.00;96864.97;5095192;28;20713;-80
2024/02/12 07:26:44;;;;;;;4.00;3.03;;;;;;;7.07;100.00;96868.31;5094355;28;20203;-80
2024/02/12 07:29:11;;;;;;;3.80;3.23;;;;;;;7.06;100.00;96860.53;5094468;28;20230;-80
2024/02/12 07:31:42;;;;;;;6.43;3.10;;;;;;;7.05;100.00;96870.22;5094203;28;20238;-80
2024/02/12 07:34:08;;;;;;;4.17;2.87;;;;;;;7.04;100.00;96879.06;5095289;28;20206;-80
2024/02/12 07:36:41;;;;;;;7.20;2.93;;;;;;;7.05;100.00;96875.47;5095632;28;20207;-84
2024/02/12 07:39:09;;;;;;;4.30;2.70;;;;;;;7.06;100.00;96882.41;5093554;28;20202;-79
2024/02/12 07:41:37;;;;;;;6.47;3.03;;;;;;;7.12;100.00;96887.19;5095131;28;20226;-79
2024/02/12 07:44:05;;;;;;;5.73;2.80;;;;;;;7.12;100.00;96883.72;5093070;28;20230;-78
2024/02/12 07:46:31;;;;;;;4.00;2.50;;;;;;;7.11;100.00;96896.03;5094041;28;20211;-81
2024/02/12 07:48:59;;;;;;;6.17;2.97;;;;;;;7.13;100.00;96899.38;5093474;28;20238;-80
2024/02/12 07:51:27;;;;;;;5.93;2.87;;;;;;;7.18;100.00;96902.50;5093592;28;20729;-80
2024/02/12 07:53:54;;;;;;;5.73;2.57;;;;;;;7.25;100.00;96903.72;5093287;28;20207;-80
2024/02/12 07:56:20;;;;;;;4.17;2.30;;;;;;;7.22;100.00;96899.50;5093797;28;20207;-79
2024/02/12 07:58:47;;;;;;;4.70;2.00;;;;;;;7.23;100.00;96905.63;5093249;28;20267;-80
2024/02/12 08:01:13;;;;;;;3.07;2.20;;;;;;;7.26;100.00;96915.88;5093588;28;20199;-79
2024/02/12 08:03:41;;;;;;;3.97;2.13;;;;;;;7.32;100.00;96914.59;5093516;28;20704;-79
2024/02/12 08:06:09;;;;;;;3.40;2.03;;;;;;;7.33;100.00;96911.84;5093618;28;20302;-80
2024/02/12 08:08:36;;;;;;;4.37;2.50;;;;;;;7.37;100.00;96923.81;5093163;28;20693;-80
2024/02/12 08:11:03;;;;;;;3.30;2.10;;;;;;;7.30;100.00;96922.59;5093145;28;20213;-80
2024/02/12 08:13:30;;;;;;;2.90;2.10;;;;;;;7.28;100.00;96924.50;5093592;28;20210;-80
2024/02/12 08:15:57;;;;;;;3.17;2.33;;;;;;;7.29;100.00;96926.19;5093595;28;20626;-79
2024/02/12 08:18:24;;;;;;;1.80;1.70;;;;;;;7.27;100.00;96922.81;5090117;28;20213;-79
2024/02/12 08:20:50;;;;;;;4.10;2.00;;;;;;;7.27;100.00;96928.06;5092567;28;20211;-80
2024/02/12 08:23:18;;;;;;;2.40;1.63;;;;;;;7.32;100.00;96933.81;5092582;28;20227;-79
2024/02/12 08:25:45;;;;;;;3.47;2.00;;;;;;;7.30;100.00;96943.63;5092139;28;20210;-79
2024/02/12 08:28:11;;;;;;;1.93;1.50;;;;;;;7.29;100.00;96944.59;5091973;28;20288;-79
2024/02/12 08:30:37;;;;;;;2.47;1.70;;;;;;;7.37;100.00;96947.47;5092816;28;20227;-80
2024/02/12 08:33:05;;;;;;;2.63;2.00;;;;;;;7.47;100.00;96941.38;5092635;28;20255;-80
2024/02/12 08:35:32;;;;;;;1.63;1.40;;;;;;;7.55;100.00;96944.28;5092511;28;20202;-79
2024/02/12 08:37:59;;;;;;;2.63;1.70;;;;;;;7.63;100.00;96951.56;5093970;28;20219;-80
2024/02/12 08:40:30;;;;;;;2.77;1.90;;;;;;;7.73;100.00;96957.81;5097122;28;20210;-80
2024/02/12 08:42:58;;;;;;;4.50;2.00;;;;;;;7.79;100.00;96962.63;5097787;28;20228;-80
2024/02/12 08:45:25;;;;;;;1.87;1.60;;;;;;;7.84;100.00;96960.47;5095764;28;20295;-79
2024/02/12 08:47:52;;;;;;;2.30;1.70;;;;;;;7.93;100.00;96960.59;5091505;28;20242;-79
2024/02/12 08:50:18;;;;;;;2.97;1.50;;;;;;;7.94;100.00;96962.28;5092523;28;20238;-79
2024/02/12 08:52:45;;;;;;;2.07;1.40;;;;;;;7.99;100.00;96961.91;5092848;28;20227;-79
2024/02/12 08:55:11;;;;;;;1.67;1.30;;;;;;;8.01;100.00;96962.63;5092629;28;20205;-79
2024/02/12 08:57:41;;;;;;;1.50;1.40;;;;;;;8.09;100.00;96965.50;5091944;28;20243;-79
2024/02/12 09:00:10;;;;;;;2.00;1.20;;;;;;;8.15;100.00;96965.03;5092802;28;20703;-79
2024/02/12 09:02:37;;;;;;;1.23;1.13;;;;;;;8.17;100.00;96968.38;5092831;28;20234;-79
2024/02/12 09:05:10;;;;;;;2.03;1.30;;;;;;;8.25;100.00;96971.28;5092647;28;20203;-79
2024/02/12 09:07:36;;;;;;;1.93;1.30;;;;;;;8.28;100.00;96971.03;5092403;28;20338;-79
2024/02/12 09:10:06;;;;;;;1.20;1.10;;;;;;;8.33;100.00;96967.09;5099479;28;20234;-83
2024/02/12 09:12:33;;;;;;;1.47;1.20;;;;;;;8.40;100.00;96967.44;5094347;28;20251;-83
2024/02/12 09:15:01;;;;;;;1.23;0.93;;;;;;;8.47;100.00;96971.28;5096833;28;20213;-82
2024/02/12 09:17:27;;;;;;;1.40;1.10;;;;;;;8.52;100.00;96975.19;5096122;28;20213;-81
2024/02/12 09:19:54;;;;;;;1.83;1.20;;;;;;;8.59;100.00;96975.56;5095176;28;20205;-80
2024/02/12 09:22:20;;;;;;;2.50;1.27;;;;;;;8.64;100.00;96973.41;5097080;28;20233;-82
2024/02/12 09:24:47;;;;;;;1.47;1.17;;;;;;;8.72;100.00;96968.34;5095599;28;20208;-80
2024/02/12 09:27:13;;;;;;;1.70;1.40;;;;;;;8.61;100.00;96963.94;5097138;28;20241;-83
2024/02/12 09:29:40;;;;;;;39.17;11.27;;;;;;;8.67;100.00;96963.47;5099830;28;20256;-83
2024/02/12 09:32:09;;;;;;;3.13;1.60;;;;;;;8.70;100.00;96972.91;5099231;28;20912;-83
2024/02/12 09:34:35;;;;;;;3.00;1.10;;;;;;;8.78;100.00;96981.03;5101005;28;20402;-82
2024/02/12 09:37:02;;;;;;;1.80;1.23;;;;;;;8.86;100.00;96978.63;5100300;28;20300;-83
2024/02/12 09:39:29;;;;;;;1.77;1.30;;;;;;;8.96;100.00;96969.88;5099458;28;20420;-82
2024/02/12 09:41:56;;;;;;;1.37;1.13;;;;;;;9.04;100.00;96977.97;5100473;28;20227;-81
2024/02/12 09:44:25;;;;;;;1.30;0.90;;;;;;;9.06;100.00;96965.50;5100385;28;20232;-81
2024/02/12 09:46:57;;;;;;;1.53;1.30;;;;;;;9.31;100.00;96964.34;5098532;28;20676;-78
2024/02/12 09:49:25;;;;;;;12.40;4.60;;;;;;;9.35;99.80;96971.00;5095056;28;20228;-78
2024/02/12 09:51:53;;;;;;;6.67;2.40;;;;;;;9.31;100.00;96985.44;5095895;28;20324;-79
2024/02/12 09:54:21;;;;;;;2.90;1.43;;;;;;;9.30;100.00;96986.41;5095348;28;20214;-79
2024/02/12 09:56:49;;;;;;;1.67;1.20;;;;;;;9.22;100.00;96996.72;5095706;28;20582;-79
2024/02/12 09:59:15;;;;;;;1.90;1.00;;;;;;;9.07;100.00;96997.97;5095378;28;20821;-79
2024/02/12 10:01:42;;;;;;;1.83;1.13;;;;;;;9.09;100.00;97003.94;5095148;28;20229;-79
2024/02/12 10:04:09;;;;;;;1.17;1.07;;;;;;;9.08;100.00;97007.56;5095867;28;20657;-79
2024/02/12 10:06:37;;;;;;;1.50;1.20;;;;;;;9.12;100.00;97006.34;5096093;28;20296;-79
2024/02/12 10:09:05;;;;;;;1.90;1.27;;;;;;;9.05;100.00;97000.72;5096221;28;20219;-79
2024/02/12 10:11:32;;;;;;;2.30;1.40;;;;;;;8.99;100.00;97008.31;5093446;28;20233;-79
2024/02/12 10:14:00;;;;;;;1.97;1.40;;;;;;;8.96;100.00;97011.19;5095216;28;20209;-81
2024/02/12 10:16:27;;;;;;;1.80;1.30;;;;;;;8.93;100.00;97021.97;5096399;28;20209;-80
2024/02/12 10:18:53;;;;;;;1.70;1.10;;;;;;;8.90;100.00;97024.84;5095419;28;20214;-79
2024/02/12 10:21:23;;;;;;;1.67;1.20;;;;;;;8.90;100.00;97032.75;5095946;28;20232;-82
2024/02/12 10:23:51;;;;;;;1.70;1.40;;;;;;;8.90;100.00;97027.47;5096260;28;20259;-81
2024/02/12 10:26:22;;;;;;;41.87;10.73;;;;;;;8.95;100.00;97027.94;5095423;28;20203;-78
2024/02/12 10:28:54;;;;;;;19.60;6.20;;;;;;;8.91;100.00;97035.25;5096877;28;20209;-81
2024/02/12 10:31:21;;;;;;;4.47;1.53;;;;;;;8.88;100.00;97024.13;5097066;28;20260;-82
2024/02/12 10:33:49;;;;;;;2.23;1.40;;;;;;;8.87;100.00;97027.75;5096199;28;20217;-82
2024/02/12 10:36:18;;;;;;;2.47;1.53;;;;;;;8.97;100.00;97023.38;5097594;28;20206;-81
2024/02/12 10:38:44;;;;;;;3.57;1.50;;;;;;;9.09;100.00;97022.41;5095715;28;20619;-77
2024/02/12 10:41:19;;;;;;;1.93;1.30;;;;;;;9.26;100.00;97020.09;5094271;28;20685;-79
2024/02/12 10:43:47;;;;;;;1.20;1.10;;;;;;;9.48;100.00;97019.16;5096270;28;20275;-79
2024/02/12 10:46:14;;;;;;;3.63;1.87;;;;;;;9.64;98.76;96988.75;5096418;28;20214;-80
2024/02/12 10:48:44;;;;;;;2.27;1.60;;;;;;;9.72;96.00;96988.13;5094620;28;20205;-79
2024/02/12 10:51:10;;;;;;;3.77;1.80;;;;;;;9.60;95.86;96987.31;5094074;28;20387;-79
2024/02/12 10:53:39;;;;;;;2.03;1.80;;;;;;;9.44;96.36;96988.72;5094196;28;20208;-80
2024/02/12 10:56:08;;;;;;;3.00;1.60;;;;;;;9.37;99.43;97008.66;5094431;28;20313;-81
2024/02/12 10:58:36;;;;;;;2.70;1.70;;;;;;;9.29;99.73;97013.72;5094173;28;20217;-82
2024/02/12 11:01:02;;;;;;;2.80;1.60;;;;;;;9.25;100.00;97007.84;5094510;28;20201;-81
2024/02/12 11:03:32;;;;;;;1.57;1.47;;;;;;;9.20;98.87;97009.19;5095672;28;20223;-82
2024/02/12 11:06:00;;;;;;;2.47;1.70;;;;;;;9.09;98.31;96998.69;5095909;28;20274;-82
2024/02/12 11:08:28;;;;;;;3.93;1.37;;;;;;;9.13;97.68;97003.56;5095374;28;20207;-79
2024/02/12 11:10:59;;;;;;;2.43;1.60;;;;;;;9.20;97.18;97004.78;5095600;28;20232;-79
2024/02/12 11:13:33;;;;;;;1.83;1.37;;;;;;;9.28;94.81;96996.22;5093956;28;20207;-78
2024/02/12 11:16:03;;;;;;;3.13;1.30;;;;;;;9.40;94.77;96992.56;5093651;28;20212;-78
2024/02/12 11:18:35;;;;;;;2.17;1.40;;;;;;;9.46;94.25;96994.72;5094591;28;20201;-78
2024/02/12 11:21:02;;;;;;;1.93;1.37;;;;;;;9.51;93.68;96995.16;5093494;28;20309;-78
2024/02/12 11:23:30;;;;;;;2.73;1.47;;;;;;;9.44;93.56;96991.38;5095019;28;20223;-78
2024/02/12 11:25:59;;;;;;;2.40;1.30;;;;;;;9.51;95.11;97003.06;5094406;28;20219;-81
2024/02/12 11:28:28;;;;;;;2.57;1.50;;;;;;;9.61;94.78;97004.00;5094030;28;20225;-78
2024/02/12 11:30:54;;;;;;;4.17;1.57;;;;;;;9.63;93.03;96991.50;5094162;28;20228;-80
2024/02/12 11:33:24;;;;;;;3.10;1.20;;;;;;;9.69;93.30;96994.50;5094655;28;20230;-80
2024/02/12 11:35:50;;;;;;;1.50;1.40;;;;;;;9.69;92.91;96999.78;5095192;28;20239;-79
2024/02/12 11:38:17;;;;;;;3.00;1.63;;;;;;;9.76;92.40;96993.00;5093673;28;20228;-80
2024/02/12 11:40:44;;;;;;;1.57;1.00;;;;;;;9.79;90.61;96976.09;5093724;28;20215;-79
2024/02/12 11:43:11;;;;;;;2.60;1.07;;;;;;;9.92;91.15;96993.38;5093621;28;20238;-78
2024/02/12 11:45:38;;;;;;;2.63;1.30;;;;;;;9.94;92.18;97001.16;5094370;28;20209;-81
2024/02/12 11:48:10;;;;;;;1.93;1.20;;;;;;;10.00;90.47;96990.09;5094039;28;20215;-80
2024/02/12 11:50:38;;;;;;;1.30;0.93;;;;;;;10.11;90.82;96990.06;5094701;28;20318;-80
2024/02/12 11:53:05;;;;;;;8.20;2.43;;;;;;;10.07;88.19;96975.44;5094310;28;20697;-82